Pagrindinis puslapis
METAR-TAF:

METAR-TAF

Oro uostai :

Cape Romanzof, Aliaska, Jungtinės Amerikos Valstijos

platuma: 61-47N, ilguma: 166-02W, Aukštis: 139 m

Dabartinis oras

Ataskaita buvo paskelbta 22 minutes, ne 04:27 UTC
Vėjas 21 kt iš Šiaurės su gūsio iki 29 kt, svyruoja nuo Vakarų ir Rytų
Temperatūra 10°C
Drėgmė 100%
Slėgis 1006 hPa
Matomumas: 16.1 km
Su prošvaistėmis ne aukštis 400 ft
lietus

METAR: PACZ 160427Z AUTO 36021G29KT 270V080 10SM -SHRA BKN004 10/10 A2970 RMK AO2 PK WND 35030/0355 SLP057

Laikas: 20:49 (04:49 UTC)


TAF: trūkstamas

Orai ataskaitas ir orų prognozės (METAR, TAF).

turimą stotys yra geltonos ir raudonos taškus žemėlapyje.

Perkelti pele per norėdami pamatyti stoties vardą.

Tada spustelėkite, norėdami matyti oro stebėjimo ir prognozės.

Norėdami pakeisti žemėlapį: spustelėkite ant žalios mygtukų su juodo kryžiaus žemyn,; žalią mygtuką su brūkšneliu, jei norite nutolinti; arba žalių rodyklių gretimoms žemėlapius.


METAR-TAF: